createdAt,value
2022-12-01T00:17:47.946Z,6.20
2022-12-01T00:20:16.768Z,6.10
2022-12-01T00:22:48.741Z,6.20
2022-12-01T00:25:18.454Z,6.10
2022-12-01T00:27:52.089Z,6.20
2022-12-01T00:30:22.788Z,6.10
2022-12-01T00:42:45.160Z,6.20
2022-12-01T00:47:44.898Z,6.20
2022-12-01T00:52:40.546Z,6.20
2022-12-01T01:00:06.249Z,6.30
2022-12-01T01:02:34.968Z,6.30
2022-12-01T01:07:30.940Z,6.30
2022-12-01T01:12:28.283Z,6.30
2022-12-01T01:19:53.356Z,6.30
2022-12-01T01:22:20.780Z,6.30
2022-12-01T01:34:45.681Z,6.30
2022-12-01T01:37:13.420Z,6.30
2022-12-01T01:39:43.517Z,6.30
2022-12-01T01:42:15.275Z,6.30
2022-12-01T01:44:51.883Z,6.30
2022-12-01T01:47:52.204Z,6.40
2022-12-01T01:50:22.727Z,6.30
2022-12-01T01:52:58.069Z,6.30
2022-12-01T02:02:52.077Z,6.40
2022-12-01T02:05:24.399Z,6.40
2022-12-01T02:07:55.360Z,6.40
2022-12-01T02:10:46.844Z,6.40
2022-12-01T02:13:39.392Z,6.40
2022-12-01T02:16:31.572Z,6.40
2022-12-01T02:19:44.497Z,6.40
2022-12-01T02:24:57.233Z,6.40
2022-12-01T02:28:02.707Z,6.40
2022-12-01T02:30:54.880Z,6.40
2022-12-01T02:33:29.778Z,6.40
2022-12-01T02:36:26.655Z,6.40
2022-12-01T02:39:08.015Z,6.40
2022-12-01T02:44:14.637Z,6.40
2022-12-01T02:46:51.592Z,6.40
2022-12-01T02:49:24.265Z,6.30
2022-12-01T02:51:54.797Z,6.40
2022-12-01T02:56:54.086Z,6.40
2022-12-01T02:59:21.973Z,6.40
2022-12-01T03:02:24.573Z,6.40
2022-12-01T03:05:18.815Z,6.30
2022-12-01T03:08:05.725Z,6.30
2022-12-01T03:10:45.788Z,6.40
2022-12-01T03:13:37.777Z,6.30
2022-12-01T03:16:13.727Z,6.30
2022-12-01T03:19:22.794Z,6.30
2022-12-01T03:24:27.818Z,6.30
2022-12-01T03:26:58.321Z,6.30
2022-12-01T03:29:49.855Z,6.30
2022-12-01T03:32:26.704Z,6.30
2022-12-01T03:35:05.962Z,6.40
2022-12-01T03:37:56.241Z,6.40
2022-12-01T03:40:29.116Z,6.40
2022-12-01T03:45:51.154Z,6.40
2022-12-01T03:51:23.441Z,6.40
2022-12-01T03:54:07.204Z,6.40
2022-12-01T03:56:52.889Z,6.40
2022-12-01T03:59:22.702Z,6.40
2022-12-01T04:06:50.748Z,6.40
2022-12-01T04:09:18.813Z,6.40
2022-12-01T04:19:30.036Z,6.40
2022-12-01T04:29:22.806Z,6.40
2022-12-01T04:31:55.008Z,7.30
2022-12-01T04:34:25.170Z,6.40
2022-12-01T04:39:22.012Z,6.40
2022-12-01T04:41:49.953Z,6.40
2022-12-01T04:44:18.623Z,6.40
2022-12-01T04:46:48.576Z,6.40
2022-12-01T04:54:13.044Z,6.40
2022-12-01T04:56:42.254Z,6.40
2022-12-01T05:04:13.283Z,6.40
2022-12-01T05:06:41.410Z,6.40
2022-12-01T05:09:16.881Z,6.40
2022-12-01T05:11:46.098Z,6.40
2022-12-01T05:24:30.815Z,6.30
2022-12-01T05:31:56.456Z,6.30
2022-12-01T05:44:21.221Z,6.20
2022-12-01T05:56:47.412Z,6.20
2022-12-01T06:01:48.789Z,6.20
2022-12-01T06:19:10.727Z,6.20
2022-12-01T06:24:07.728Z,6.10
2022-12-01T06:26:36.925Z,6.20
2022-12-01T06:58:47.666Z,6.00
2022-12-01T07:01:17.092Z,5.90
2022-12-01T07:03:51.309Z,5.90
2022-12-01T07:06:19.000Z,5.90
2022-12-01T07:11:16.359Z,5.90
2022-12-01T07:18:47.829Z,5.90
2022-12-01T07:26:13.647Z,5.90
2022-12-01T07:28:41.745Z,5.90
2022-12-01T07:31:11.380Z,5.90
2022-12-01T07:33:39.498Z,5.80
2022-12-01T07:36:07.511Z,5.80
2022-12-01T07:38:35.419Z,5.80
2022-12-01T07:41:05.355Z,5.80
2022-12-01T07:43:33.972Z,5.70
2022-12-01T07:46:08.936Z,5.80
2022-12-01T07:48:38.923Z,5.80
2022-12-01T07:53:45.274Z,5.80
2022-12-01T07:58:44.434Z,5.80
2022-12-01T08:01:15.008Z,7.60
2022-12-01T08:08:41.492Z,5.80
2022-12-01T08:11:14.726Z,5.80
2022-12-01T08:16:13.983Z,5.90
2022-12-01T08:18:43.141Z,5.90
2022-12-01T08:21:14.141Z,5.90
2022-12-01T08:23:43.509Z,5.80
2022-12-01T08:26:17.792Z,5.90
2022-12-01T08:28:47.200Z,5.80
2022-12-01T08:31:21.756Z,5.90
2022-12-01T08:33:53.048Z,5.90
2022-12-01T08:36:23.366Z,5.90
2022-12-01T08:38:55.356Z,5.90
2022-12-01T08:41:27.047Z,5.90
2022-12-01T08:46:34.283Z,6.00
2022-12-01T08:49:03.895Z,5.90
2022-12-01T08:51:31.932Z,5.90
2022-12-01T08:54:01.949Z,5.90
2022-12-01T08:56:34.459Z,6.00
2022-12-01T09:04:08.811Z,6.10
2022-12-01T09:09:17.054Z,6.10
2022-12-01T09:14:16.464Z,6.20
2022-12-01T09:19:19.208Z,6.20
2022-12-01T09:24:20.813Z,6.20
2022-12-01T09:34:15.293Z,6.20
2022-12-01T09:39:14.288Z,6.30
2022-12-01T09:42:16.606Z,6.30
2022-12-01T09:44:50.702Z,6.30
2022-12-01T09:47:46.957Z,6.30
2022-12-01T09:50:20.432Z,6.40
2022-12-01T09:55:23.583Z,6.40
2022-12-01T09:57:54.741Z,6.50
2022-12-01T10:00:29.718Z,6.50
2022-12-01T10:05:31.418Z,6.60
2022-12-01T10:08:06.910Z,6.60
2022-12-01T10:10:43.196Z,6.60
2022-12-01T10:13:22.551Z,6.70
2022-12-01T10:16:07.443Z,6.70
2022-12-01T10:18:48.304Z,6.80
2022-12-01T10:21:47.684Z,6.70
2022-12-01T10:24:24.443Z,6.70
2022-12-01T10:27:01.297Z,6.80
2022-12-01T10:31:58.537Z,6.80
2022-12-01T10:34:35.558Z,6.80
2022-12-01T10:39:34.371Z,6.80
2022-12-01T10:42:22.967Z,6.80
2022-12-01T10:47:24.743Z,6.80
2022-12-01T10:52:40.849Z,6.90
2022-12-01T10:55:23.927Z,6.80
2022-12-01T10:57:54.311Z,6.90
2022-12-01T11:00:57.543Z,6.90
2022-12-01T11:05:59.846Z,6.90
2022-12-01T11:08:44.812Z,6.90
2022-12-01T11:11:40.748Z,6.90
2022-12-01T11:14:21.479Z,7.00
2022-12-01T11:16:54.110Z,7.00
2022-12-01T11:19:35.380Z,7.00
2022-12-01T11:24:58.782Z,7.00
2022-12-01T11:30:05.166Z,7.10
2022-12-01T11:32:39.373Z,7.10
2022-12-01T11:35:21.678Z,7.10
2022-12-01T11:38:29.325Z,7.10
2022-12-01T11:40:50.699Z,7.10
2022-12-01T11:43:36.714Z,7.10
2022-12-01T11:46:08.026Z,7.20
2022-12-01T11:48:39.695Z,7.20
2022-12-01T11:51:20.472Z,7.20
2022-12-01T11:53:49.709Z,7.30
2022-12-01T11:56:28.832Z,7.30
2022-12-01T11:59:01.690Z,7.30
2022-12-01T12:01:55.942Z,7.30
2022-12-01T12:04:34.882Z,7.20
2022-12-01T12:07:17.126Z,7.20
2022-12-01T12:10:03.277Z,7.10
2022-12-01T12:12:35.176Z,7.20
2022-12-01T12:15:41.925Z,7.20
2022-12-01T12:18:25.352Z,7.10
2022-12-01T12:21:31.232Z,7.10
2022-12-01T12:24:41.975Z,7.10
2022-12-01T12:27:23.503Z,7.10
2022-12-01T12:30:00.529Z,7.10
2022-12-01T12:32:49.743Z,7.10
2022-12-01T12:35:25.614Z,7.00
2022-12-01T12:38:21.118Z,7.10
2022-12-01T12:40:58.824Z,7.10
2022-12-01T12:43:54.363Z,7.00
2022-12-01T12:46:40.578Z,7.10
2022-12-01T12:49:21.041Z,7.10
2022-12-01T12:52:15.392Z,7.10
2022-12-01T12:55:18.044Z,7.10
2022-12-01T12:57:59.443Z,7.10
2022-12-01T13:00:29.134Z,7.20
2022-12-01T13:03:15.230Z,7.00
2022-12-01T13:05:51.680Z,7.20
2022-12-01T13:08:37.207Z,7.20
2022-12-01T13:11:17.835Z,7.20
2022-12-01T13:14:03.091Z,7.10
2022-12-01T13:16:43.524Z,7.20
2022-12-01T13:24:23.581Z,7.20
2022-12-01T13:27:13.322Z,7.10
2022-12-01T13:29:50.003Z,7.20
2022-12-01T13:32:38.254Z,7.20
2022-12-01T13:35:30.993Z,10.50
2022-12-01T13:38:44.656Z,7.20
2022-12-01T13:44:30.664Z,7.10
2022-12-01T13:47:11.445Z,7.10
2022-12-01T13:49:44.450Z,7.10
2022-12-01T13:52:28.934Z,7.10
2022-12-01T13:55:24.585Z,7.10
2022-12-01T13:57:58.237Z,7.10
2022-12-01T14:00:28.863Z,7.00
2022-12-01T14:03:15.538Z,7.00
2022-12-01T14:05:47.618Z,6.90
2022-12-01T14:08:24.365Z,6.90
2022-12-01T14:14:04.882Z,6.90
2022-12-01T14:16:52.908Z,6.90
2022-12-01T14:19:45.360Z,6.90
2022-12-01T14:22:34.336Z,6.90
2022-12-01T14:27:42.695Z,6.90
2022-12-01T14:30:46.976Z,6.90
2022-12-01T14:33:39.975Z,6.90
2022-12-01T14:36:21.173Z,6.90
2022-12-01T14:39:07.828Z,6.90
2022-12-01T14:41:41.471Z,6.90
2022-12-01T14:44:34.095Z,6.90
2022-12-01T14:47:11.203Z,6.80
2022-12-01T14:49:39.853Z,6.80
2022-12-01T14:52:18.857Z,6.70
2022-12-01T14:54:49.699Z,6.70
2022-12-01T14:57:22.693Z,6.60
2022-12-01T15:00:13.492Z,6.70
2022-12-01T15:02:45.906Z,6.60
2022-12-01T15:05:16.104Z,6.60
2022-12-01T15:07:47.029Z,6.60
2022-12-01T15:10:22.729Z,6.60
2022-12-01T15:12:52.026Z,6.50
2022-12-01T15:15:25.733Z,6.50
2022-12-01T15:17:55.910Z,6.50
2022-12-01T15:20:36.327Z,6.50
2022-12-01T15:23:17.904Z,6.50
2022-12-01T15:28:21.905Z,6.50
2022-12-01T15:30:55.227Z,6.50
2022-12-01T15:33:36.735Z,6.50
2022-12-01T15:41:29.996Z,6.40
2022-12-01T15:44:06.022Z,6.40
2022-12-01T15:46:34.813Z,6.40
2022-12-01T15:49:20.344Z,6.40
2022-12-01T15:51:50.564Z,6.40
2022-12-01T15:54:26.419Z,6.40
2022-12-01T15:56:56.729Z,6.40
2022-12-01T15:59:41.536Z,6.40
2022-12-01T16:02:25.361Z,6.30
2022-12-01T16:05:13.570Z,6.30
2022-12-01T16:10:35.020Z,5.00
2022-12-01T16:13:40.552Z,6.20
2022-12-01T16:16:31.458Z,6.20
2022-12-01T16:19:02.491Z,6.20
2022-12-01T16:21:45.948Z,6.20
2022-12-01T16:24:35.994Z,6.20
2022-12-01T16:27:06.977Z,6.20
2022-12-01T16:29:48.643Z,6.20
2022-12-01T16:32:22.847Z,6.20
2022-12-01T16:34:53.499Z,6.20
2022-12-01T16:37:22.542Z,6.20
2022-12-01T16:44:51.317Z,6.20
2022-12-01T16:47:25.051Z,6.20
2022-12-01T16:49:54.008Z,6.10
2022-12-01T16:55:44.521Z,6.10
2022-12-01T17:00:43.460Z,6.10
2022-12-01T17:03:13.268Z,6.10
2022-12-01T17:10:48.592Z,6.10
2022-12-01T17:13:19.138Z,6.10
2022-12-01T17:15:48.753Z,6.10
2022-12-01T17:18:19.218Z,6.00
2022-12-01T17:20:57.900Z,6.00
2022-12-01T17:28:23.542Z,8.10
2022-12-01T17:30:52.861Z,5.90
2022-12-01T17:35:51.156Z,5.80
2022-12-01T17:41:07.589Z,5.80
2022-12-01T17:43:36.722Z,5.80
2022-12-01T17:46:06.940Z,5.80
2022-12-01T17:48:40.652Z,5.80
2022-12-01T17:58:37.672Z,5.80
2022-12-01T18:01:06.843Z,5.80
2022-12-01T18:03:34.880Z,5.80
2022-12-01T18:06:04.733Z,5.80
2022-12-01T18:08:35.582Z,5.60
2022-12-01T18:11:12.820Z,5.70
2022-12-01T18:13:43.928Z,5.70
2022-12-01T18:16:15.729Z,5.70
2022-12-01T18:18:49.986Z,5.60
2022-12-01T18:24:03.383Z,5.60
2022-12-01T18:29:30.841Z,5.60
2022-12-01T18:37:03.936Z,5.50
2022-12-01T18:42:03.615Z,5.50
2022-12-01T18:52:00.421Z,5.50
2022-12-01T19:04:28.119Z,5.50
2022-12-01T19:09:25.454Z,5.50
2022-12-01T19:12:02.248Z,5.40
2022-12-01T19:19:27.263Z,5.30
2022-12-01T19:31:43.972Z,5.30
2022-12-01T19:36:57.960Z,5.30
2022-12-01T19:44:52.884Z,5.30
2022-12-01T19:49:53.209Z,5.20
2022-12-01T19:52:20.818Z,5.20
2022-12-01T19:59:59.248Z,5.20
2022-12-01T20:02:29.308Z,5.20
2022-12-01T20:12:25.924Z,5.20
2022-12-01T20:17:27.579Z,5.10
2022-12-01T20:32:29.013Z,5.10
2022-12-01T20:39:54.988Z,5.00
2022-12-01T20:44:53.948Z,4.90
2022-12-01T20:47:23.374Z,4.90
2022-12-01T20:49:54.208Z,4.90
2022-12-01T20:52:27.019Z,4.90
2022-12-01T20:54:54.911Z,4.90
2022-12-01T20:57:25.673Z,4.90
2022-12-01T21:15:29.447Z,4.90
2022-12-01T21:18:04.263Z,4.90
2022-12-01T21:20:36.485Z,4.90
2022-12-01T21:23:18.090Z,4.90
2022-12-01T21:25:48.167Z,4.90
2022-12-01T21:31:14.102Z,4.90
2022-12-01T21:36:18.807Z,4.90
2022-12-01T21:39:01.346Z,4.90
2022-12-01T21:41:30.598Z,4.90
2022-12-01T21:44:13.927Z,5.00
2022-12-01T21:49:35.479Z,4.90
2022-12-01T21:52:12.238Z,4.90
2022-12-01T21:57:27.774Z,4.80
2022-12-01T22:00:36.361Z,4.80
2022-12-01T22:11:27.094Z,4.80
2022-12-01T22:14:17.664Z,4.80
2022-12-01T22:16:58.756Z,4.80
2022-12-01T22:19:32.095Z,4.80
2022-12-01T22:22:01.057Z,4.70
2022-12-01T22:24:54.050Z,4.80
2022-12-01T22:27:31.576Z,4.80
2022-12-01T22:30:03.175Z,4.80
2022-12-01T22:35:34.212Z,4.80
2022-12-01T22:40:49.565Z,4.80
2022-12-01T22:45:57.637Z,4.80
2022-12-01T22:48:31.248Z,4.80
2022-12-01T22:51:35.444Z,4.80
2022-12-01T22:56:48.236Z,4.70
2022-12-01T22:59:23.232Z,4.70
2022-12-01T23:01:57.169Z,4.60
2022-12-01T23:04:31.945Z,4.60
2022-12-01T23:07:05.317Z,4.70
2022-12-01T23:12:14.179Z,4.60
2022-12-01T23:14:49.722Z,4.60
2022-12-01T23:17:22.997Z,4.60
2022-12-01T23:19:59.255Z,4.60
2022-12-01T23:27:26.618Z,4.70
2022-12-01T23:35:00.213Z,4.70
2022-12-01T23:37:40.059Z,4.70
2022-12-01T23:40:35.474Z,4.70
2022-12-01T23:43:19.676Z,4.80
2022-12-01T23:45:52.971Z,4.70
2022-12-01T23:49:03.973Z,4.80
2022-12-01T23:51:39.003Z,4.80
2022-12-01T23:54:34.848Z,4.80
2022-12-01T23:57:10.392Z,4.80
2022-12-01T23:59:39.112Z,4.80
